sensor_id;sensor_type;location;lat;lon;timestamp;P1;durP1;ratioP1;P2;durP2;ratioP2
43933;SDS011;59081;42.706;23.306;2023-08-06T00:00:01;6.30;;;3.60;;
43933;SDS011;59081;42.706;23.306;2023-08-06T00:05:03;8.27;;;3.65;;
43933;SDS011;59081;42.706;23.306;2023-08-06T00:10:03;5.53;;;3.50;;
43933;SDS011;59081;42.706;23.306;2023-08-06T00:15:04;6.10;;;3.38;;
43933;SDS011;59081;42.706;23.306;2023-08-06T00:20:05;5.22;;;2.72;;
43933;SDS011;59081;42.706;23.306;2023-08-06T00:25:07;9.07;;;3.47;;
43933;SDS011;59081;42.706;23.306;2023-08-06T00:30:07;4.88;;;2.70;;
43933;SDS011;59081;42.706;23.306;2023-08-06T00:35:08;5.55;;;3.53;;
43933;SDS011;59081;42.706;23.306;2023-08-06T00:40:09;4.00;;;2.65;;
43933;SDS011;59081;42.706;23.306;2023-08-06T00:45:09;4.80;;;3.28;;
43933;SDS011;59081;42.706;23.306;2023-08-06T00:50:10;6.15;;;3.42;;
43933;SDS011;59081;42.706;23.306;2023-08-06T00:55:10;11.30;;;4.00;;
43933;SDS011;59081;42.706;23.306;2023-08-06T01:00:11;6.25;;;3.65;;
43933;SDS011;59081;42.706;23.306;2023-08-06T01:05:12;6.85;;;3.67;;
43933;SDS011;59081;42.706;23.306;2023-08-06T01:15:41;5.55;;;3.70;;
43933;SDS011;59081;42.706;23.306;2023-08-06T01:20:49;5.70;;;4.00;;
43933;SDS011;59081;42.706;23.306;2023-08-06T01:31:02;6.75;;;3.97;;
43933;SDS011;59081;42.706;23.306;2023-08-06T01:36:06;4.43;;;3.67;;
43933;SDS011;59081;42.706;23.306;2023-08-06T01:41:07;7.65;;;4.13;;
43933;SDS011;59081;42.706;23.306;2023-08-06T01:46:07;7.57;;;4.18;;
43933;SDS011;59081;42.706;23.306;2023-08-06T01:51:08;6.32;;;3.97;;
43933;SDS011;59081;42.706;23.306;2023-08-06T01:56:08;4.97;;;3.95;;
43933;SDS011;59081;42.706;23.306;2023-08-06T02:01:08;7.32;;;3.47;;
43933;SDS011;59081;42.706;23.306;2023-08-06T02:06:09;6.43;;;3.85;;
43933;SDS011;59081;42.706;23.306;2023-08-06T02:11:09;4.93;;;3.97;;
43933;SDS011;59081;42.706;23.306;2023-08-06T02:16:10;7.15;;;4.28;;
43933;SDS011;59081;42.706;23.306;2023-08-06T02:21:10;5.93;;;3.63;;
43933;SDS011;59081;42.706;23.306;2023-08-06T02:26:11;11.23;;;5.20;;
43933;SDS011;59081;42.706;23.306;2023-08-06T02:31:11;7.88;;;4.97;;
43933;SDS011;59081;42.706;23.306;2023-08-06T02:36:11;12.18;;;4.70;;
43933;SDS011;59081;42.706;23.306;2023-08-06T02:41:12;8.80;;;4.53;;
43933;SDS011;59081;42.706;23.306;2023-08-06T02:46:12;6.22;;;4.72;;
43933;SDS011;59081;42.706;23.306;2023-08-06T02:51:13;9.60;;;4.38;;
43933;SDS011;59081;42.706;23.306;2023-08-06T02:56:13;7.25;;;4.47;;
43933;SDS011;59081;42.706;23.306;2023-08-06T03:01:13;6.03;;;3.90;;
43933;SDS011;59081;42.706;23.306;2023-08-06T03:06:14;9.63;;;3.92;;
43933;SDS011;59081;42.706;23.306;2023-08-06T03:11:14;5.55;;;3.30;;
43933;SDS011;59081;42.706;23.306;2023-08-06T03:16:15;6.63;;;3.72;;
43933;SDS011;59081;42.706;23.306;2023-08-06T03:21:15;7.20;;;3.88;;
43933;SDS011;59081;42.706;23.306;2023-08-06T03:26:16;8.88;;;3.90;;
43933;SDS011;59081;42.706;23.306;2023-08-06T03:31:17;5.28;;;3.75;;
43933;SDS011;59081;42.706;23.306;2023-08-06T03:36:17;5.25;;;3.13;;
43933;SDS011;59081;42.706;23.306;2023-08-06T03:41:18;7.63;;;3.42;;
43933;SDS011;59081;42.706;23.306;2023-08-06T03:46:18;4.03;;;3.25;;
43933;SDS011;59081;42.706;23.306;2023-08-06T03:51:18;8.57;;;3.58;;
43933;SDS011;59081;42.706;23.306;2023-08-06T03:56:19;5.90;;;3.22;;
43933;SDS011;59081;42.706;23.306;2023-08-06T04:01:19;7.68;;;3.90;;
43933;SDS011;59081;42.706;23.306;2023-08-06T04:06:20;5.18;;;3.10;;
43933;SDS011;59081;42.706;23.306;2023-08-06T04:11:20;4.53;;;3.45;;
43933;SDS011;59081;42.706;23.306;2023-08-06T04:16:21;4.82;;;3.50;;
43933;SDS011;59081;42.706;23.306;2023-08-06T04:21:21;6.63;;;3.80;;
43933;SDS011;59081;42.706;23.306;2023-08-06T04:26:22;5.53;;;3.63;;
43933;SDS011;59081;42.706;23.306;2023-08-06T04:31:22;7.10;;;3.78;;
43933;SDS011;59081;42.706;23.306;2023-08-06T04:36:23;5.72;;;3.97;;
43933;SDS011;59081;42.706;23.306;2023-08-06T04:41:24;5.38;;;4.15;;
43933;SDS011;59081;42.706;23.306;2023-08-06T04:46:24;7.90;;;4.03;;
43933;SDS011;59081;42.706;23.306;2023-08-06T04:51:24;8.90;;;5.45;;
43933;SDS011;59081;42.706;23.306;2023-08-06T04:56:25;4.45;;;3.75;;
43933;SDS011;59081;42.706;23.306;2023-08-06T05:01:25;4.65;;;3.78;;
43933;SDS011;59081;42.706;23.306;2023-08-06T05:06:26;5.28;;;3.90;;
43933;SDS011;59081;42.706;23.306;2023-08-06T05:11:26;4.40;;;3.13;;
43933;SDS011;59081;42.706;23.306;2023-08-06T05:16:27;5.03;;;3.33;;
43933;SDS011;59081;42.706;23.306;2023-08-06T05:21:28;5.35;;;3.63;;
43933;SDS011;59081;42.706;23.306;2023-08-06T05:26:28;4.57;;;3.50;;
43933;SDS011;59081;42.706;23.306;2023-08-06T05:31:29;7.30;;;4.75;;
43933;SDS011;59081;42.706;23.306;2023-08-06T05:36:29;9.05;;;5.97;;
43933;SDS011;59081;42.706;23.306;2023-08-06T05:41:30;11.20;;;7.45;;
43933;SDS011;59081;42.706;23.306;2023-08-06T05:46:30;7.75;;;6.28;;
43933;SDS011;59081;42.706;23.306;2023-08-06T05:51:31;11.60;;;5.90;;
43933;SDS011;59081;42.706;23.306;2023-08-06T05:56:31;4.35;;;3.33;;
43933;SDS011;59081;42.706;23.306;2023-08-06T06:01:32;6.78;;;3.25;;
43933;SDS011;59081;42.706;23.306;2023-08-06T06:06:32;6.00;;;2.53;;
43933;SDS011;59081;42.706;23.306;2023-08-06T06:11:32;3.35;;;2.35;;
43933;SDS011;59081;42.706;23.306;2023-08-06T06:16:33;3.72;;;1.92;;
43933;SDS011;59081;42.706;23.306;2023-08-06T06:21:34;2.10;;;1.80;;
43933;SDS011;59081;42.706;23.306;2023-08-06T06:26:34;2.38;;;2.10;;
43933;SDS011;59081;42.706;23.306;2023-08-06T06:31:35;2.65;;;1.95;;
43933;SDS011;59081;42.706;23.306;2023-08-06T06:36:35;6.20;;;2.38;;
43933;SDS011;59081;42.706;23.306;2023-08-06T06:41:36;2.22;;;1.83;;
43933;SDS011;59081;42.706;23.306;2023-08-06T06:46:36;2.53;;;1.83;;
43933;SDS011;59081;42.706;23.306;2023-08-06T06:51:37;2.57;;;2.10;;
43933;SDS011;59081;42.706;23.306;2023-08-06T06:56:37;3.07;;;2.00;;
43933;SDS011;59081;42.706;23.306;2023-08-06T07:01:38;5.18;;;2.40;;
43933;SDS011;59081;42.706;23.306;2023-08-06T07:06:38;2.45;;;1.80;;
43933;SDS011;59081;42.706;23.306;2023-08-06T07:11:38;4.28;;;1.98;;
43933;SDS011;59081;42.706;23.306;2023-08-06T07:16:39;2.80;;;2.30;;
43933;SDS011;59081;42.706;23.306;2023-08-06T07:21:39;6.28;;;2.30;;
43933;SDS011;59081;42.706;23.306;2023-08-06T07:26:40;5.27;;;2.57;;
43933;SDS011;59081;42.706;23.306;2023-08-06T07:31:40;5.90;;;2.70;;
43933;SDS011;59081;42.706;23.306;2023-08-06T07:36:43;4.00;;;2.43;;
43933;SDS011;59081;42.706;23.306;2023-08-06T07:41:44;2.75;;;2.35;;
43933;SDS011;59081;42.706;23.306;2023-08-06T07:46:45;4.75;;;2.35;;
43933;SDS011;59081;42.706;23.306;2023-08-06T07:51:46;6.70;;;2.63;;
43933;SDS011;59081;42.706;23.306;2023-08-06T07:56:46;2.30;;;2.10;;
43933;SDS011;59081;42.706;23.306;2023-08-06T08:01:47;2.93;;;2.10;;
43933;SDS011;59081;42.706;23.306;2023-08-06T08:06:47;3.87;;;2.07;;
43933;SDS011;59081;42.706;23.306;2023-08-06T08:11:48;3.17;;;2.30;;
43933;SDS011;59081;42.706;23.306;2023-08-06T08:16:48;4.47;;;2.77;;
43933;SDS011;59081;42.706;23.306;2023-08-06T08:21:49;3.00;;;2.10;;
43933;SDS011;59081;42.706;23.306;2023-08-06T08:26:52;5.03;;;2.43;;
43933;SDS011;59081;42.706;23.306;2023-08-06T08:31:53;3.80;;;2.67;;
43933;SDS011;59081;42.706;23.306;2023-08-06T08:36:53;3.13;;;2.67;;
43933;SDS011;59081;42.706;23.306;2023-08-06T08:41:54;8.00;;;2.23;;
43933;SDS011;59081;42.706;23.306;2023-08-06T08:46:54;7.53;;;2.67;;
43933;SDS011;59081;42.706;23.306;2023-08-06T08:51:55;3.00;;;2.33;;
43933;SDS011;59081;42.706;23.306;2023-08-06T08:56:58;5.53;;;2.20;;
43933;SDS011;59081;42.706;23.306;2023-08-06T09:02:00;3.23;;;2.10;;
43933;SDS011;59081;42.706;23.306;2023-08-06T09:07:01;3.33;;;2.40;;
43933;SDS011;59081;42.706;23.306;2023-08-06T09:12:05;4.25;;;2.47;;
43933;SDS011;59081;42.706;23.306;2023-08-06T09:17:12;5.75;;;2.78;;
43933;SDS011;59081;42.706;23.306;2023-08-06T09:22:14;5.03;;;2.20;;
43933;SDS011;59081;42.706;23.306;2023-08-06T09:27:14;3.37;;;2.23;;
43933;SDS011;59081;42.706;23.306;2023-08-06T09:32:15;3.92;;;2.10;;
43933;SDS011;59081;42.706;23.306;2023-08-06T09:37:15;2.90;;;2.20;;
43933;SDS011;59081;42.706;23.306;2023-08-06T09:42:16;2.83;;;2.20;;
43933;SDS011;59081;42.706;23.306;2023-08-06T09:47:16;2.47;;;1.90;;
43933;SDS011;59081;42.706;23.306;2023-08-06T09:52:18;2.70;;;1.98;;
43933;SDS011;59081;42.706;23.306;2023-08-06T09:57:19;3.30;;;2.08;;
43933;SDS011;59081;42.706;23.306;2023-08-06T10:02:20;5.25;;;2.20;;
43933;SDS011;59081;42.706;23.306;2023-08-06T10:07:26;4.30;;;1.50;;
43933;SDS011;59081;42.706;23.306;2023-08-06T10:12:30;1.77;;;1.48;;
43933;SDS011;59081;42.706;23.306;2023-08-06T10:17:37;2.10;;;1.52;;
43933;SDS011;59081;42.706;23.306;2023-08-06T10:22:43;2.10;;;1.90;;
43933;SDS011;59081;42.706;23.306;2023-08-06T10:32:47;3.93;;;1.93;;
43933;SDS011;59081;42.706;23.306;2023-08-06T10:37:49;3.90;;;2.17;;
43933;SDS011;59081;42.706;23.306;2023-08-06T10:42:49;3.77;;;1.80;;
43933;SDS011;59081;42.706;23.306;2023-08-06T10:47:50;2.70;;;1.90;;
43933;SDS011;59081;42.706;23.306;2023-08-06T10:52:50;4.43;;;2.10;;
43933;SDS011;59081;42.706;23.306;2023-08-06T10:57:52;2.92;;;1.90;;
43933;SDS011;59081;42.706;23.306;2023-08-06T11:02:54;3.50;;;1.95;;
43933;SDS011;59081;42.706;23.306;2023-08-06T11:07:55;2.33;;;2.13;;
43933;SDS011;59081;42.706;23.306;2023-08-06T11:13:00;3.13;;;2.83;;
43933;SDS011;59081;42.706;23.306;2023-08-06T11:18:01;18.23;;;9.68;;
43933;SDS011;59081;42.706;23.306;2023-08-06T11:23:03;6.55;;;3.20;;
43933;SDS011;59081;42.706;23.306;2023-08-06T11:33:06;3.47;;;2.75;;
43933;SDS011;59081;42.706;23.306;2023-08-06T11:38:09;4.32;;;3.20;;
43933;SDS011;59081;42.706;23.306;2023-08-06T11:43:10;3.40;;;2.20;;
43933;SDS011;59081;42.706;23.306;2023-08-06T11:48:11;3.30;;;2.97;;
43933;SDS011;59081;42.706;23.306;2023-08-06T11:53:14;2.00;;;1.70;;
43933;SDS011;59081;42.706;23.306;2023-08-06T11:58:16;3.92;;;2.83;;
43933;SDS011;59081;42.706;23.306;2023-08-06T12:08:19;8.98;;;3.58;;
43933;SDS011;59081;42.706;23.306;2023-08-06T12:13:19;5.05;;;3.00;;
43933;SDS011;59081;42.706;23.306;2023-08-06T12:18:20;6.60;;;3.30;;
43933;SDS011;59081;42.706;23.306;2023-08-06T12:23:21;4.93;;;4.43;;
43933;SDS011;59081;42.706;23.306;2023-08-06T12:28:21;8.10;;;4.37;;
43933;SDS011;59081;42.706;23.306;2023-08-06T12:33:22;4.20;;;3.80;;
43933;SDS011;59081;42.706;23.306;2023-08-06T12:38:22;5.60;;;3.93;;
43933;SDS011;59081;42.706;23.306;2023-08-06T12:43:23;4.83;;;3.90;;
43933;SDS011;59081;42.706;23.306;2023-08-06T12:48:23;4.37;;;3.63;;
43933;SDS011;59081;42.706;23.306;2023-08-06T12:53:23;7.53;;;3.90;;
43933;SDS011;59081;42.706;23.306;2023-08-06T12:58:24;4.93;;;3.50;;
43933;SDS011;59081;42.706;23.306;2023-08-06T13:03:24;4.60;;;3.93;;
43933;SDS011;59081;42.706;23.306;2023-08-06T13:08:25;4.97;;;3.30;;
43933;SDS011;59081;42.706;23.306;2023-08-06T13:13:25;4.57;;;4.17;;
43933;SDS011;59081;42.706;23.306;2023-08-06T13:23:29;4.90;;;3.50;;
43933;SDS011;59081;42.706;23.306;2023-08-06T13:28:29;9.17;;;3.80;;
43933;SDS011;59081;42.706;23.306;2023-08-06T13:33:30;5.57;;;5.07;;
43933;SDS011;59081;42.706;23.306;2023-08-06T13:38:30;8.93;;;3.50;;
43933;SDS011;59081;42.706;23.306;2023-08-06T13:43:31;4.43;;;3.67;;
43933;SDS011;59081;42.706;23.306;2023-08-06T13:48:31;5.97;;;3.67;;
43933;SDS011;59081;42.706;23.306;2023-08-06T13:53:32;5.68;;;3.30;;
43933;SDS011;59081;42.706;23.306;2023-08-06T13:58:32;5.40;;;2.70;;
43933;SDS011;59081;42.706;23.306;2023-08-06T14:08:34;3.58;;;2.85;;
43933;SDS011;59081;42.706;23.306;2023-08-06T14:13:34;4.15;;;2.70;;
43933;SDS011;59081;42.706;23.306;2023-08-06T14:18:35;3.97;;;2.70;;
43933;SDS011;59081;42.706;23.306;2023-08-06T14:23:37;5.72;;;2.78;;
43933;SDS011;59081;42.706;23.306;2023-08-06T14:28:38;3.88;;;2.78;;
43933;SDS011;59081;42.706;23.306;2023-08-06T14:33:38;4.88;;;2.55;;
43933;SDS011;59081;42.706;23.306;2023-08-06T14:38:39;5.40;;;2.80;;
43933;SDS011;59081;42.706;23.306;2023-08-06T14:43:39;4.07;;;2.35;;
43933;SDS011;59081;42.706;23.306;2023-08-06T14:48:40;7.53;;;3.10;;
43933;SDS011;59081;42.706;23.306;2023-08-06T14:53:42;5.53;;;2.95;;
43933;SDS011;59081;42.706;23.306;2023-08-06T15:03:43;5.80;;;2.77;;
43933;SDS011;59081;42.706;23.306;2023-08-06T15:13:45;6.55;;;2.70;;
43933;SDS011;59081;42.706;23.306;2023-08-06T15:18:46;7.68;;;2.53;;
43933;SDS011;59081;42.706;23.306;2023-08-06T15:23:46;11.27;;;3.30;;
43933;SDS011;59081;42.706;23.306;2023-08-06T15:28:47;2.92;;;2.65;;
43933;SDS011;59081;42.706;23.306;2023-08-06T15:38:48;5.83;;;2.73;;
43933;SDS011;59081;42.706;23.306;2023-08-06T15:48:48;3.55;;;2.70;;
43933;SDS011;59081;42.706;23.306;2023-08-06T15:53:49;5.10;;;3.07;;
43933;SDS011;59081;42.706;23.306;2023-08-06T15:58:49;3.40;;;2.80;;
43933;SDS011;59081;42.706;23.306;2023-08-06T16:03:50;3.83;;;2.60;;
43933;SDS011;59081;42.706;23.306;2023-08-06T16:08:50;4.40;;;3.15;;
43933;SDS011;59081;42.706;23.306;2023-08-06T16:13:51;6.33;;;3.00;;
43933;SDS011;59081;42.706;23.306;2023-08-06T16:18:51;3.97;;;2.53;;
43933;SDS011;59081;42.706;23.306;2023-08-06T16:23:51;5.07;;;2.90;;
43933;SDS011;59081;42.706;23.306;2023-08-06T16:28:52;7.57;;;2.87;;
43933;SDS011;59081;42.706;23.306;2023-08-06T16:33:53;4.17;;;2.13;;
43933;SDS011;59081;42.706;23.306;2023-08-06T16:38:53;6.47;;;2.13;;
43933;SDS011;59081;42.706;23.306;2023-08-06T16:43:54;2.73;;;2.10;;
43933;SDS011;59081;42.706;23.306;2023-08-06T16:48:54;6.20;;;3.20;;
43933;SDS011;59081;42.706;23.306;2023-08-06T16:53:54;3.30;;;2.13;;
43933;SDS011;59081;42.706;23.306;2023-08-06T16:58:55;1.97;;;1.40;;
43933;SDS011;59081;42.706;23.306;2023-08-06T17:03:55;1.83;;;1.17;;
43933;SDS011;59081;42.706;23.306;2023-08-06T17:08:56;3.40;;;2.13;;
43933;SDS011;59081;42.706;23.306;2023-08-06T17:13:56;9.40;;;1.87;;
43933;SDS011;59081;42.706;23.306;2023-08-06T17:18:57;1.67;;;0.90;;
43933;SDS011;59081;42.706;23.306;2023-08-06T17:23:57;1.93;;;1.13;;
43933;SDS011;59081;42.706;23.306;2023-08-06T17:28:58;1.10;;;1.00;;
43933;SDS011;59081;42.706;23.306;2023-08-06T17:33:58;2.17;;;0.90;;
43933;SDS011;59081;42.706;23.306;2023-08-06T17:38:58;2.13;;;1.37;;
43933;SDS011;59081;42.706;23.306;2023-08-06T17:43:59;1.17;;;1.07;;
43933;SDS011;59081;42.706;23.306;2023-08-06T17:48:59;1.50;;;1.33;;
43933;SDS011;59081;42.706;23.306;2023-08-06T17:54:00;1.17;;;0.77;;
43933;SDS011;59081;42.706;23.306;2023-08-06T17:59:00;1.37;;;0.80;;
43933;SDS011;59081;42.706;23.306;2023-08-06T18:04:01;4.17;;;1.00;;
43933;SDS011;59081;42.706;23.306;2023-08-06T18:09:01;3.30;;;0.90;;
43933;SDS011;59081;42.706;23.306;2023-08-06T18:14:02;1.33;;;1.23;;
43933;SDS011;59081;42.706;23.306;2023-08-06T18:19:03;2.53;;;0.87;;
43933;SDS011;59081;42.706;23.306;2023-08-06T18:24:03;1.47;;;1.20;;
43933;SDS011;59081;42.706;23.306;2023-08-06T18:29:04;2.03;;;0.90;;
43933;SDS011;59081;42.706;23.306;2023-08-06T18:34:05;6.00;;;1.10;;
43933;SDS011;59081;42.706;23.306;2023-08-06T18:39:06;3.45;;;1.13;;
43933;SDS011;59081;42.706;23.306;2023-08-06T18:44:07;2.53;;;1.40;;
43933;SDS011;59081;42.706;23.306;2023-08-06T18:49:07;2.10;;;1.00;;
43933;SDS011;59081;42.706;23.306;2023-08-06T18:54:08;4.03;;;1.60;;
43933;SDS011;59081;42.706;23.306;2023-08-06T18:59:08;2.90;;;2.03;;
43933;SDS011;59081;42.706;23.306;2023-08-06T19:04:09;2.37;;;1.57;;
43933;SDS011;59081;42.706;23.306;2023-08-06T19:09:11;3.75;;;1.38;;
43933;SDS011;59081;42.706;23.306;2023-08-06T19:14:13;3.38;;;1.85;;
43933;SDS011;59081;42.706;23.306;2023-08-06T19:19:14;4.50;;;1.20;;
43933;SDS011;59081;42.706;23.306;2023-08-06T19:24:17;3.13;;;1.30;;
43933;SDS011;59081;42.706;23.306;2023-08-06T19:29:18;2.23;;;1.50;;
43933;SDS011;59081;42.706;23.306;2023-08-06T19:34:19;2.43;;;1.10;;
43933;SDS011;59081;42.706;23.306;2023-08-06T19:39:22;3.95;;;1.30;;
43933;SDS011;59081;42.706;23.306;2023-08-06T19:44:28;0.25;;;0.25;;
43933;SDS011;59081;42.706;23.306;2023-08-06T19:49:31;0.68;;;0.68;;
43933;SDS011;59081;42.706;23.306;2023-08-06T19:54:32;2.22;;;0.52;;
43933;SDS011;59081;42.706;23.306;2023-08-06T19:59:36;0.80;;;0.40;;
43933;SDS011;59081;42.706;23.306;2023-08-06T20:04:36;0.60;;;0.40;;
43933;SDS011;59081;42.706;23.306;2023-08-06T20:09:39;0.88;;;0.50;;
43933;SDS011;59081;42.706;23.306;2023-08-06T20:14:40;1.15;;;0.63;;
43933;SDS011;59081;42.706;23.306;2023-08-06T20:19:40;0.70;;;0.68;;
43933;SDS011;59081;42.706;23.306;2023-08-06T20:24:41;2.03;;;1.45;;
43933;SDS011;59081;42.706;23.306;2023-08-06T20:29:41;1.88;;;1.52;;
43933;SDS011;59081;42.706;23.306;2023-08-06T20:34:45;2.65;;;1.40;;
43933;SDS011;59081;42.706;23.306;2023-08-06T20:39:45;1.38;;;0.70;;
43933;SDS011;59081;42.706;23.306;2023-08-06T20:44:46;1.00;;;0.90;;
43933;SDS011;59081;42.706;23.306;2023-08-06T20:49:47;1.30;;;1.20;;
43933;SDS011;59081;42.706;23.306;2023-08-06T20:54:47;0.60;;;0.60;;
43933;SDS011;59081;42.706;23.306;2023-08-06T20:59:55;1.08;;;0.88;;
43933;SDS011;59081;42.706;23.306;2023-08-06T21:04:58;0.85;;;0.50;;
43933;SDS011;59081;42.706;23.306;2023-08-06T21:09:59;0.50;;;0.50;;
43933;SDS011;59081;42.706;23.306;2023-08-06T21:15:03;0.60;;;0.60;;
43933;SDS011;59081;42.706;23.306;2023-08-06T21:20:05;1.45;;;1.00;;
43933;SDS011;59081;42.706;23.306;2023-08-06T21:25:06;1.00;;;0.88;;
43933;SDS011;59081;42.706;23.306;2023-08-06T21:30:07;1.48;;;0.80;;
43933;SDS011;59081;42.706;23.306;2023-08-06T21:35:12;1.15;;;0.90;;
43933;SDS011;59081;42.706;23.306;2023-08-06T21:40:15;0.90;;;0.60;;
43933;SDS011;59081;42.706;23.306;2023-08-06T21:45:18;0.80;;;0.70;;
43933;SDS011;59081;42.706;23.306;2023-08-06T21:50:19;4.70;;;0.98;;
43933;SDS011;59081;42.706;23.306;2023-08-06T21:55:25;1.90;;;0.90;;
43933;SDS011;59081;42.706;23.306;2023-08-06T22:00:29;1.67;;;0.82;;
43933;SDS011;59081;42.706;23.306;2023-08-06T22:05:30;1.45;;;0.80;;
43933;SDS011;59081;42.706;23.306;2023-08-06T22:10:31;1.20;;;0.73;;
43933;SDS011;59081;42.706;23.306;2023-08-06T22:15:32;1.60;;;0.85;;
43933;SDS011;59081;42.706;23.306;2023-08-06T22:20:33;1.10;;;0.70;;
43933;SDS011;59081;42.706;23.306;2023-08-06T22:25:34;1.33;;;0.73;;
43933;SDS011;59081;42.706;23.306;2023-08-06T22:30:34;6.57;;;3.78;;
43933;SDS011;59081;42.706;23.306;2023-08-06T22:35:38;2.28;;;1.27;;
43933;SDS011;59081;42.706;23.306;2023-08-06T22:40:39;1.08;;;0.93;;
43933;SDS011;59081;42.706;23.306;2023-08-06T22:45:44;0.90;;;0.90;;
43933;SDS011;59081;42.706;23.306;2023-08-06T22:50:49;1.00;;;0.93;;
43933;SDS011;59081;42.706;23.306;2023-08-06T22:55:49;2.17;;;1.48;;
43933;SDS011;59081;42.706;23.306;2023-08-06T23:00:50;1.60;;;1.20;;
43933;SDS011;59081;42.706;23.306;2023-08-06T23:05:51;1.15;;;1.05;;
43933;SDS011;59081;42.706;23.306;2023-08-06T23:10:51;1.95;;;1.58;;
43933;SDS011;59081;42.706;23.306;2023-08-06T23:15:55;8.95;;;7.93;;
43933;SDS011;59081;42.706;23.306;2023-08-06T23:20:58;1.77;;;1.55;;
43933;SDS011;59081;42.706;23.306;2023-08-06T23:25:59;1.55;;;1.40;;
43933;SDS011;59081;42.706;23.306;2023-08-06T23:31:04;1.23;;;1.00;;
43933;SDS011;59081;42.706;23.306;2023-08-06T23:36:07;1.98;;;1.77;;
43933;SDS011;59081;42.706;23.306;2023-08-06T23:41:17;3.88;;;3.13;;
43933;SDS011;59081;42.706;23.306;2023-08-06T23:46:18;2.25;;;1.95;;
43933;SDS011;59081;42.706;23.306;2023-08-06T23:51:22;3.78;;;1.60;;
43933;SDS011;59081;42.706;23.306;2023-08-06T23:56:25;1.10;;;1.00;;
